Home > Products > Valid Products > TAF

000
FTUS43 KFGF 281720
TAFGFK
TAF
KGFK 281720Z 2818/2918 05013G20KT P6SM SCT250
     FM290300 05007KT P6SM SCT250
     FM290800 VRB03KT P6SM SCT250
     FM291600 05007KT P6SM SCT250=



000
FTUS43 KFGF 281720
TAFFAR
TAF
KFAR 281720Z 2818/2918 06008G18KT P6SM BKN200
     FM290000 07008KT P6SM BKN250
     FM290600 VRB04KT P6SM SCT150=



000
FTUS43 KFGF 281120
TAFFAR
TAF
KFAR 281120Z 2812/2912 04011KT P6SM BKN080
     FM290300 07005KT P6SM SCT120=



000
FTUS43 KFGF 281120
TAFGFK
TAF
KGFK 281120Z 2812/2912 05010KT P6SM BKN200
     FM290300 05007KT P6SM SCT250=



000
FTUS43 KFGF 272329
TAFGFK
TAF
KGFK 272329Z 2800/2824 06015G25KT P6SM OVC250
     FM280200 05009KT P6SM BKN250=



000
FTUS43 KFGF 272329
TAFFAR
TAF
KFAR 272329Z 2800/2824 08012KT P6SM BKN100
     FM280300 06009KT P6SM BKN150=



000
FTUS43 KFGF 271909 AAA
TAFFAR
TAF AMD
KFAR 271909Z 2719/2818 07016G25KT P6SM SCT200
     FM280300 07009KT P6SM BKN150=



000
FTUS43 KFGF 271804 AAA
TAFGFK
TAF AMD
KGFK 271804Z 2718/2818 09017G24KT P6SM SCT250
     FM280300 07009KT P6SM BKN250=



000
FTUS43 KFGF 271804 AAA
TAFGFK
TAF AMD
KGFK 271804Z 2718/2818 09017G24KT P6SM SCT250
     FM280300 07009KT P6SM BKN250=



000
FTUS43 KFGF 271720
TAFFAR
TAF
KFAR 271720Z 2718/2818 07016KT P6SM SCT200
     FM280300 07009KT P6SM BKN150=



000
FTUS43 KFGF 271720
TAFGFK
TAF
KGFK 271720Z 2718/2818 09016KT P6SM SCT250
     FM280300 07009KT P6SM BKN250=



000
FTUS43 KFGF 271401 AAA
TAFGFK
TAF AMD
KGFK 271401Z 2714/2812 08014G20KT P6SM BKN250
     FM271600 07017KT P6SM SCT250
     FM280600 08007KT P6SM BKN250=



000
FTUS43 KFGF 271120
TAFFAR
TAF
KFAR 271120Z 2712/2812 07011KT P6SM BKN050
     FM271600 07017KT P6SM BKN250
     FM280000 06008KT P6SM SCT250=



000
FTUS43 KFGF 271120
TAFGFK
TAF
KGFK 271120Z 2712/2812 08011KT P6SM BKN250
     FM271600 07017KT P6SM SCT250
     FM280600 08007KT P6SM BKN250=



000
FTUS43 KFGF 271120
TAFGFK
TAF
KGFK 271120Z 2712/2812 08011KT P6SM BKN250
     FM271600 07017KT P6SM SCT250
     FM280600 08007KT P6SM BKN250=



000
FTUS43 KFGF 271120
TAFFAR
TAF
KFAR 271120Z 2712/2812 07011KT P6SM BKN050
     FM271600 07017KT P6SM BKN250
     FM280000 06008KT P6SM SCT250=



000
FTUS43 KFGF 270520
TAFFAR
TAF
KFAR 270520Z 2706/2806 08007KT P6SM OVC040
     FM271200 07011KT P6SM BKN200
     FM271500 05017G25KT P6SM OVC200
     FM280100 06011KT P6SM BKN150=



000
FTUS43 KFGF 270520
TAFGFK
TAF
KGFK 270520Z 2706/2806 06006KT P6SM BKN080
     FM271700 06016G24KT P6SM BKN200
     FM280100 05011KT P6SM BKN200=



000
FTUS43 KFGF 262324
TAFFAR
TAF
KFAR 262324Z 2700/2724 11010KT P6SM OVC035
     FM271000 07011KT P6SM BKN200
     FM271500 05017G25KT P6SM OVC200=



000
FTUS43 KFGF 262324
TAFGFK
TAF
KGFK 262324Z 2700/2724 09013KT P6SM BKN060
     FM270500 07006KT P6SM BKN140
     FM271700 06016G24KT P6SM SCT200=



000
FTUS43 KFGF 261720
TAFFAR
TAF
KFAR 261720Z 2618/2718 08011KT P6SM OVC020
     FM270000 09010KT P6SM OVC050
     FM271200 07013KT P6SM BKN250=



000
FTUS43 KFGF 261720
TAFGFK
TAF
KGFK 261720Z 2618/2718 07014KT P6SM OVC070
     FM270300 09009KT P6SM BKN050=



000
FTUS43 KFGF 261720
TAFFAR
TAF
KFAR 261720Z 2618/2718 08011KT P6SM OVC020
     FM270000 09010KT P6SM OVC050
     FM271200 07013KT P6SM BKN250=



000
FTUS43 KFGF 261720
TAFGFK
TAF
KGFK 261720Z 2618/2718 07014KT P6SM OVC070
     FM270300 09009KT P6SM BKN050=



000
FTUS43 KFGF 261548 AAC
TAFGFK
TAF AMD
KGFK 261548Z 2616/2712 09014KT P6SM OVC030
     FM261700 09013KT P6SM BKN050
     FM270500 09009KT P6SM BKN250=



000
FTUS43 KFGF 261427 AAB
TAFGFK
TAF AMD
KGFK 261427Z 2614/2712 06009KT P6SM OVC025
     FM261600 09014KT P6SM BKN050
     FM270500 09009KT P6SM BKN250=



000
FTUS43 KFGF 261115 AAA
TAFGFK
TAF AMD
KGFK 261115Z 2611/2706 06009KT P6SM OVC040
      TEMPO 2612/2614 -RA OVC025
     FM261800 09014KT P6SM BKN050
     FM270500 09009KT P6SM BKN250=



000
FTUS43 KFGF 261115 AAA
TAFFAR
TAF AMD
KFAR 261115Z 2611/2706 06012KT P6SM OVC015
     FM261800 06013KT P6SM OVC025
     FM262200 08011KT P6SM OVC035=



000
FTUS43 KFGF 260522
TAFGFK
TAF
KGFK 260522Z 2606/2706 06017KT P6SM OVC035
      TEMPO 2606/2608 5SM -RA BR OVC025
     FM260800 05015KT P6SM VCSH OVC035
     FM261100 06012KT P6SM BKN050=



000
FTUS43 KFGF 260522
TAFFAR
TAF
KFAR 260522Z 2606/2706 08011KT P6SM OVC016
      TEMPO 2606/2610 4SM -RA BR OVC008
     FM261000 05010KT P6SM OVC010
     FM261800 07013KT P6SM OVC021
     FM262300 09012KT P6SM OVC040=



000
FTUS43 KFGF 260522
TAFFAR
TAF
KFAR 260522Z 2606/2706 08011KT P6SM OVC016
      TEMPO 2606/2610 4SM -RA BR OVC008
     FM261000 05010KT P6SM OVC010
     FM261800 07013KT P6SM OVC021
     FM262300 09012KT P6SM OVC040=



000
FTUS43 KFGF 260355 AAB
TAFFAR
TAF AMD
KFAR 260355Z 2604/2624 06010KT P6SM VCSH OVC022
      TEMPO 2604/2606 3SM -RA BR BKN012
     FM261000 06015KT P6SM OVC008
     FM262000 08014KT P6SM OVC025
     FM262300 09012KT P6SM OVC040=



000
FTUS43 KFGF 260355 AAB
TAFFAR
TAF AMD
KFAR 260355Z 2604/2624 06010KT P6SM VCSH OVC022
      TEMPO 2604/2606 3SM -RA BR BKN012
     FM261000 06015KT P6SM OVC008
     FM262000 08014KT P6SM OVC025
     FM262300 09012KT P6SM OVC040=



000
FTUS43 KFGF 260225 AAA
TAFGFK
TAF AMD
KGFK 260225Z 2602/2624 06021KT P6SM VCSH OVC026
      TEMPO 2602/2604 5SM -RA BR OVC019
     FM261500 07015KT P6SM OVC025
     FM261700 08012KT P6SM BKN035=



000
FTUS43 KFGF 260047 AAA
TAFFAR
TAF AMD
KFAR 260047Z 2601/2624 06010KT P6SM VCSH OVC014
      TEMPO 2601/2603 2SM -RA BR
     FM261000 06015KT P6SM OVC008
     FM262000 08014KT P6SM OVC025
     FM262300 09012KT P6SM OVC040=



000
FTUS43 KFGF 260047 AAA
TAFFAR
TAF AMD
KFAR 260047Z 2601/2624 06010KT P6SM VCSH OVC014
      TEMPO 2601/2603 2SM -RA BR
     FM261000 06015KT P6SM OVC008
     FM262000 08014KT P6SM OVC025
     FM262300 09012KT P6SM OVC040=



000
FTUS43 KFGF 252338
TAFFAR
TAF
KFAR 252338Z 2600/2624 06010KT P6SM -RA OVC014
     FM261000 06015KT P6SM OVC008
     FM262000 08014KT P6SM OVC025
     FM262300 09012KT P6SM OVC040=



000
FTUS43 KFGF 252338
TAFGFK
TAF
KGFK 252338Z 2600/2624 06021KT P6SM VCSH OVC015
      TEMPO 2600/2602 5SM -RA BR
     FM261500 07015KT P6SM OVC025
     FM261700 08012KT P6SM BKN035=



000
FTUS43 KFGF 252041 AAA
TAFFAR
TAF AMD
KFAR 252041Z 2521/2618 08012KT P6SM OVC014
     FM260100 06010KT P6SM OVC008
     FM261600 08010KT P6SM BKN015=



000
FTUS43 KFGF 252040 AAA
TAFGFK
TAF AMD
KGFK 252040Z 2521/2618 07017KT P6SM OVC022
      TEMPO 2521/2523 3SM -RA BR OVC015
     FM260600 07010KT P6SM BKN015
     FM261600 08012KT P6SM BKN035=



    US Dept of Commerce
    National Oceanic and Atmospheric Administration
    National Weather Service
    1325 East West Highway
    Silver Spring, MD 20910
    Page Author: NWS Internet Services Team
Disclaimer
Information Quality
Credits
Glossary
Privacy Policy
Freedom of Information Act (FOIA)
About Us
Career Opportunities